Flight Track Log - Related Links

Times and Time Zones

All times are in EDT time to prevent confusion due to time zone crossing. See the FLG3429 flight status page for this flight to view local times or setup timezone preferences in your user account.

Time Position Orientation Groundspeed Altitude Reporting Facility
EDT Latitude Longitude Course Direction KTS MPH feet Rate Location/Type
Fri 04:20:19 PM 46.3275 -119.1778 72° East 205 236 3,300  Level Salt Lake Center
Fri 04:21:21 PM 46.3908 -119.1481 18° North 235 270 5,000 2,081 Climbing Salt Lake Center
Fri 04:22:00 PM 46.3991 -118.4765 73° East  Level FlightAware Approximate
Fri 04:22:23 PM 46.4594 -119.1139 19° North 255 293 7,600  Level Salt Lake Center
Fri 04:23:00 PM 46.4339 -118.3141 72° East  Level FlightAware Approximate
Fri 04:23:26 PM 46.5172 -119.0244 47° Northeast 282 325 10,700  Level Seattle Center
Fri 04:24:00 PM 46.4701 -118.1522 72° East  Level FlightAware Approximate
Fri 04:24:27 PM 46.5292 -118.9097 81° East 287 330 12,600  Level Seattle Center
Fri 04:25:00 PM 46.5075 -117.9839 72° East  Level FlightAware Approximate
Fri 04:25:28 PM 46.5400 -118.7886 83° East 329 379 13,700  Level Seattle Center
Fri 04:26:29 PM 46.5531 -118.6508 82° East 344 396 15,900 1,869 Climbing Seattle Center
Fri 04:27:30 PM 46.5650 -118.5103 83° East 353 406 17,500 1,512 Climbing Seattle Center
Fri 04:28:32 PM 46.5786 -118.3631 82° East 367 422 19,000 1,707 Climbing Seattle Center
Fri 04:29:33 PM 46.5958 -118.1878 82° East 368 423 21,000 1,672 Climbing Seattle Center
Fri 04:30:34 PM 46.6100 -118.0350 82° East 376 433 22,400 1,377 Climbing Seattle Center
Fri 04:31:35 PM 46.6219 -117.8758 84° East 393 452 23,800 1,317 Climbing Seattle Center
Fri 04:32:37 PM 46.6378 -117.7175 82° East 396 456 25,100 1,220 Climbing Seattle Center
Fri 04:33:38 PM 46.6533 -117.5575 82° East 401 461 26,300 1,131 Climbing Seattle Center
Fri 04:34:39 PM 46.6686 -117.3939 82° East 408 470 27,400 946 Climbing Seattle Center
Fri 04:36:42 PM 46.6989 -117.0625 82° East 418 481 29,200 1,174 Climbing Seattle Center
Fri 04:37:43 PM 46.7181 -116.8628 82° East 418 481 31,000 1,279 Climbing Seattle Center
Fri 04:38:44 PM 46.7317 -116.7011 83° East 408 470 31,800 732 Climbing Seattle Center
Fri 04:39:46 PM 46.7464 -116.5350 83° East 413 475 32,500 634 Climbing Seattle Center
Fri 04:40:47 PM 46.7606 -116.3650 83° East 422 486 33,100 590 Climbing Seattle Center
Fri 04:41:48 PM 46.7756 -116.1944 83° East 427 491 33,700 590 Climbing Seattle Center
Fri 04:42:49 PM 46.7897 -116.0222 83° East 429 494 34,300 424 Climbing Seattle Center
Fri 04:44:52 PM 46.8189 -115.6689 83° East 440 506 35,000 228 Climbing Seattle Center
Fri 04:45:53 PM 46.8353 -115.4494 84° East 451 519 35,000  Level Seattle Center
Fri 04:46:54 PM 46.8500 -115.2669 83° East 458 527 35,000  Level Seattle Center
Fri 04:47:55 PM 46.8636 -115.0789 84° East 465 535 35,000  Level Seattle Center
Fri 04:48:57 PM 46.8772 -114.8939 84° East 462 532 35,000  Level Seattle Center
Fri 04:49:58 PM 46.8911 -114.7075 84° East 464 534 35,000  Level Seattle Center
Fri 04:50:59 PM 46.9036 -114.5206 84° East 464 534 35,000  Level Seattle Center
Fri 04:52:00 PM 46.9158 -114.3308 85° East 468 539 35,000  Level Seattle Center
Fri 04:53:01 PM 46.9286 -114.1439 84° East 467 537 35,000  Level Seattle Center
Fri 04:54:03 PM 46.9428 -113.9206 85° East 465 535 35,000  Level Seattle Center
Fri 04:55:04 PM 46.9544 -113.7342 85° East 463 533 35,000  Level Seattle Center
Fri 04:56:26 PM 46.9686 -113.5097 85° East 463 533 35,000  Level Salt Lake Center
Fri 04:57:27 PM 46.9819 -113.2872 85° East 460 529 35,000  Level Salt Lake Center
Fri 04:58:29 PM 46.9922 -113.1008 85° East 460 529 35,000  Level Salt Lake Center
Fri 04:59:31 PM 47.0022 -112.9156 85° East 459 528 35,000  Level Salt Lake Center
Fri 05:00:33 PM 47.0139 -112.7081 85° East 460 529 35,000 -24 Level Salt Lake Center
Fri 05:02:00 PM 47.0271 -112.4502 86° East  Level FlightAware Approximate
Fri 05:03:39 PM 47.0431 -112.1522 86° East 461 531 34,900  Level Salt Lake Center
Fri 05:04:41 PM 47.0508 -111.9625 86° East 468 539 35,000 49 Climbing Salt Lake Center
Fri 05:05:42 PM 47.0600 -111.7711 86° East 473 544 35,000  Level Salt Lake Center
Fri 05:06:44 PM 47.0694 -111.5408 86° East 476 548 35,000  Level Salt Lake Center
Fri 05:07:46 PM 47.0781 -111.3494 86° East 476 548 35,000  Level Salt Lake Center
Fri 05:08:48 PM 47.0856 -111.1589 87° East 474 545 35,000  Level Salt Lake Center
Fri 05:09:00 PM 47.0825 -111.2036 86° East  Level FlightAware Approximate
Fri 05:09:50 PM 47.0928 -110.9703 87° East 471 542 35,000  Level Salt Lake Center
Fri 05:10:52 PM 47.0989 -110.7814 87° East 468 539 35,000  Level Salt Lake Center
Fri 05:11:54 PM 47.1083 -110.5564 86° East 465 535 35,000  Level Salt Lake Center
Fri 05:12:55 PM 47.1128 -110.3675 88° East 466 536 35,000  Level Salt Lake Center
Fri 05:13:57 PM 47.1194 -110.1789 87° East 465 535 35,000  Level Salt Lake Center
Fri 05:14:59 PM 47.1106 -109.9919 94° East 462 532 35,000  Level Salt Lake Center
Fri 05:16:01 PM 47.1003 -109.8042 95° East 464 534 35,000  Level Salt Lake Center
Fri 05:17:03 PM 47.0928 -109.6167 93° East 463 533 35,000  Level Salt Lake Center
Fri 05:18:05 PM 47.0847 -109.3900 93° East 465 535 35,000  Level Salt Lake Center
Fri 05:19:06 PM 47.0783 -109.2008 93° East 466 536 35,000  Level Salt Lake Center
Fri 05:20:08 PM 47.0814 -109.0072 89° East 470 541 35,000  Level Salt Lake Center
Fri 05:21:10 PM 47.0864 -108.7986 88° East 472 543 35,000  Level Salt Lake Center
Fri 05:22:12 PM 47.0906 -108.6072 88° East 471 542 35,000  Level Salt Lake Center
Fri 05:23:14 PM 47.0953 -108.4153 88° East 472 543 35,000  Level Salt Lake Center
Fri 05:24:16 PM 47.1022 -108.2039 87° East 473 544 35,000  Level Salt Lake Center
Fri 05:25:18 PM 47.1061 -108.0111 88° East 474 545 35,000  Level Salt Lake Center
Fri 05:26:20 PM 47.1089 -107.8364 89° East 476 548 35,000  Level Salt Lake Center
Fri 05:27:21 PM 47.1111 -107.6417 89° East 478 550 35,000  Level Salt Lake Center
Fri 05:28:23 PM 47.1136 -107.4075 89° East 479 551 35,000  Level Salt Lake Center
Fri 05:29:25 PM 47.1172 -107.2147 88° East 476 548 35,000  Level Salt Lake Center
Fri 05:30:27 PM 47.1181 -107.0219 90° East 475 547 35,000  Level Salt Lake Center
Fri 05:31:29 PM 47.1194 -106.8289 89° East 475 547 35,000  Level Salt Lake Center
Fri 05:32:31 PM 47.1203 -106.6375 90° East 473 544 35,000  Level Salt Lake Center
Fri 05:33:33 PM 47.1211 -106.4428 90° East 476 548 35,000  Level Salt Lake Center
Fri 05:34:35 PM 47.1189 -106.2094 91° East 477 549 35,000  Level Salt Lake Center
Fri 05:35:36 PM 47.1197 -106.0178 90° East 476 548 35,000 -49 Level Salt Lake Center
Fri 05:36:38 PM 47.1197 -105.8261 90° East 474 545 34,900  Descending Salt Lake Center
Fri 05:37:40 PM 47.1189 -105.6356 90° East 472 543 35,000 48 Climbing Salt Lake Center
Fri 05:38:42 PM 47.1183 -105.4456 90° East 470 541 35,000  Level Salt Lake Center
Fri 05:39:44 PM 47.1189 -105.2564 90° East 468 539 35,000  Level Salt Lake Center
Fri 05:41:00 PM 47.1151 -105.0318 91° East  Level FlightAware Approximate
Fri 05:41:48 PM 47.1142 -104.8408 91° East 466 536 35,000  Level Salt Lake Center
Fri 05:42:50 PM 47.1136 -104.6544 90° East 464 534 35,000  Level Salt Lake Center
Fri 05:43:51 PM 47.1106 -104.4683 91° East 461 531 35,000  Level Salt Lake Center
Fri 05:44:53 PM 47.1086 -104.2817 91° East 461 531 35,000  Level Salt Lake Center
Fri 05:45:55 PM 47.1056 -104.0942 91° East 462 532 35,000  Level Salt Lake Center
Fri 05:46:57 PM 47.1017 -103.8722 91° East 461 531 35,000  Level Salt Lake Center
Fri 05:47:59 PM 47.0981 -103.6889 92° East 458 527 35,000  Level Salt Lake Center
Fri 05:49:01 PM 47.0956 -103.5008 91° East 460 529 35,000  Level Salt Lake Center
Fri 05:50:03 PM 47.0917 -103.3167 92° East 459 528 35,000  Level Salt Lake Center
Fri 05:51:05 PM 47.0867 -103.1333 92° East 457 526 35,000  Level Salt Lake Center
Fri 05:52:06 PM 47.0814 -102.9119 92° East 456 525 35,000  Level Salt Lake Center
Fri 05:53:08 PM 47.0761 -102.7278 92° East 455 524 35,000  Level Salt Lake Center
Fri 05:54:10 PM 47.0722 -102.5431 92° East 455 524 35,000  Level Salt Lake Center
Fri 05:55:12 PM 47.0650 -102.3619 93° East 452 520 35,000  Level Salt Lake Center
Fri 05:56:14 PM 47.0611 -102.1822 92° East 449 517 35,000  Level Salt Lake Center
Fri 05:56:44 PM 47.0569 -102.0772 93° East 443 510 35,000  Level Minneapolis Center
Fri 05:57:46 PM 47.0372 -101.9014 99° East 442 509 35,000  Level Minneapolis Center
Fri 05:58:48 PM 47.0169 -101.7236 99° East 442 509 35,000  Level Minneapolis Center
Fri 06:00:02 PM 46.9883 -101.5150 101° East 442 509 35,000  Level Minneapolis Center
Fri 06:01:05 PM 46.9608 -101.3106 101° East 435 501 35,000  Level Minneapolis Center
Fri 06:02:08 PM 46.9428 -101.1417 99° East 428 493 35,000  Level Minneapolis Center
Fri 06:03:10 PM 46.9258 -100.9714 98° East 425 489 35,000  Level Minneapolis Center
Fri 06:04:12 PM 46.9108 -100.7939 97° East 430 495 35,000  Level Minneapolis Center
Fri 06:05:14 PM 46.8994 -100.6250 96° East 423 487 35,000  Level Minneapolis Center
Fri 06:06:16 PM 46.8950 -100.4178 92° East 432 497 35,000  Level Minneapolis Center
Fri 06:07:18 PM 46.8894 -100.2339 92° East 447 514 35,000  Level Minneapolis Center
Fri 06:08:20 PM 46.8847 -100.0525 92° East 450 518 35,000  Level Minneapolis Center
Fri 06:09:22 PM 46.8808 -99.8761 92° East 442 509 35,000  Level Minneapolis Center
Fri 06:10:24 PM 46.8750 -99.7042 93° East 431 496 35,000  Level Minneapolis Center
Fri 06:11:26 PM 46.8697 -99.5319 93° East 427 491 35,000  Level Minneapolis Center
Fri 06:12:28 PM 46.8642 -99.3244 92° East 427 491 35,000  Level Minneapolis Center
Fri 06:13:30 PM 46.8564 -99.1444 94° East 438 504 35,000  Level Minneapolis Center
Fri 06:14:32 PM 46.8508 -98.9625 92° East 448 516 35,000  Level Minneapolis Center
Fri 06:15:34 PM 46.8431 -98.7783 93° East 453 521 35,000  Level Minneapolis Center
Fri 06:16:36 PM 46.8361 -98.5956 93° East 455 524 35,000  Level Minneapolis Center
Fri 06:17:38 PM 46.8283 -98.3836 93° East 446 513 35,000  Level Minneapolis Center
Fri 06:18:40 PM 46.8206 -98.2119 94° East 435 501 35,000  Level Minneapolis Center
Fri 06:19:42 PM 46.8136 -98.0419 93° East 427 491 35,000  Level Minneapolis Center
Fri 06:20:45 PM 46.8053 -97.8692 94° East 428 493 35,000  Level Minneapolis Center
Fri 06:21:47 PM 46.7989 -97.6950 93° East 431 496 35,000  Level Minneapolis Center
Fri 06:22:49 PM 46.8056 -97.4811 87° East 441 507 35,000  Level Minneapolis Center
Fri 06:23:51 PM 46.8125 -97.3031 87° East 443 510 35,000  Level Minneapolis Center
Fri 06:24:53 PM 46.8183 -97.1272 87° East 439 505 35,000  Level Minneapolis Center
Fri 06:25:55 PM 46.8247 -96.9533 87° East 434 499 35,000  Level Minneapolis Center
Fri 06:26:57 PM 46.8325 -96.7781 86° East 435 501 35,000  Level Minneapolis Center
Fri 06:27:59 PM 46.7844 -96.5817 110° East 428 493 35,000  Level Minneapolis Center
Fri 06:29:01 PM 46.7294 -96.4186 116° Southeast 445 512 35,000  Level Minneapolis Center
Fri 06:30:04 PM 46.6725 -96.2514 116° Southeast 460 529 35,000  Level Minneapolis Center
Fri 06:31:06 PM 46.6156 -96.0908 117° Southeast 452 520 35,000  Level Minneapolis Center
Fri 06:32:08 PM 46.5592 -95.9250 116° Southeast 457 526 35,000  Level Minneapolis Center
Fri 06:33:10 PM 46.5017 -95.7578 116° Southeast 463 533 35,000  Level Minneapolis Center
Fri 06:34:12 PM 46.4389 -95.5806 117° Southeast 468 539 35,000  Level Minneapolis Center
Fri 06:35:14 PM 46.3775 -95.4064 117° Southeast 471 542 35,000 -48 Level Minneapolis Center
Fri 06:36:16 PM 46.3058 -95.2058 117° Southeast 470 541 34,900 -339 Descending Minneapolis Center
Fri 06:37:18 PM 46.2494 -95.0467 117° Southeast 455 524 34,300 -1,210 Descending Minneapolis Center
Fri 06:38:20 PM 46.1953 -94.8944 117° Southeast 448 516 32,400 -1,887 Descending Minneapolis Center
Fri 06:39:22 PM 46.1392 -94.7419 118° Southeast 435 501 30,400 -1,968 Descending Minneapolis Center
Fri 06:40:25 PM 46.0786 -94.5772 118° Southeast 456 525 28,300 -2,544 Descending Minneapolis Center
Fri 06:41:27 PM 45.9819 -94.4028 129° Southeast 468 539 25,100 -2,806 Descending Minneapolis Center
Fri 06:42:29 PM 45.9078 -94.2650 128° Southeast 449 517 22,500 -2,516 Descending Minneapolis Center
Fri 06:43:31 PM 45.8347 -94.1283 127° Southeast 437 503 19,900 -2,371 Descending Minneapolis Center
Fri 06:44:33 PM 45.7656 -94.0019 128° Southeast 417 480 17,600 -2,226 Descending Minneapolis Center
Fri 06:45:35 PM 45.6983 -93.8783 128° Southeast 397 457 15,300 -2,419 Descending Minneapolis Center
Fri 06:46:37 PM 45.6197 -93.7336 128° Southeast 385 443 12,600 -2,081 Descending Minneapolis Center
Fri 06:47:39 PM 45.5550 -93.6169 128° Southeast 378 435 11,000 -968 Descending Minneapolis Center
Fri 06:48:41 PM 45.4778 -93.5503 149° Southeast 313 360 10,600 -871 Descending Minneapolis Center
Fri 06:49:43 PM 45.4036 -93.5111 160° South 283 326 9,200 -1,632 Descending Minneapolis Center
Fri 06:50:46 PM 45.3278 -93.5056 177° South 271 312 7,200 -1,056 Descending Minneapolis Center
Fri 06:51:48 PM 45.2522 -93.5028 179° South 274 315 7,000 -435 Descending Minneapolis Center
Fri 06:52:50 PM 45.1750 -93.5511 204° Southwest 252 290 6,300 -968 Descending Minneapolis Center
Fri 06:53:52 PM 45.1403 -93.6292 238° Southwest 237 273 5,000 -823 Descending Minneapolis Center
Fri 06:54:54 PM 45.1003 -93.6769 220° Southwest 218 251 4,600 -484 Descending Minneapolis Center
Fri 06:55:56 PM 45.0633 -93.6217 133° Southeast 197 227 4,000 -290 Descending Minneapolis Center
Fri 06:56:58 PM 45.0400 -93.5600 118° Southeast 181 208 4,000  Level Minneapolis Center
Fri 06:58:00 PM 45.0075 -93.4867 122° Southeast 182 209 4,000  Level Minneapolis Center
Fri 06:59:02 PM 44.9814 -93.4256 121° Southeast 182 209 4,000 -435 Level Minneapolis Center
Fri 07:00:04 PM 44.9550 -93.3647 121° Southeast 182 209 3,100 -823 Descending Minneapolis Center
Fri 07:01:06 PM 44.9311 -93.3089 121° Southeast 170 196 2,300 -768 Descending Minneapolis Center
Fri 07:02:09 PM 44.9111 -93.2619 121° Southeast 144 166 1,500 -762 Descending Minneapolis Center

Login

Don't have an account? Register now (free) for customized features, flight alerts, and more!